Terminal Aerodrome Forecast
Issued by NWS Cleveland, OH

Home | Current Version | Previous Version | Graphics & Text | Print | Product List | Glossary Off
Versions: 1 2 3 4 5 6 7 8 9 10 11 12 13

000
FTUS41 KCLE 010538
TAFYNG
TAF
KYNG 010538Z 0106/0206 24008KT P6SM FEW060 SCT100
     FM011600 29010G18KT P6SM BKN060
     FM020000 24005KT P6SM SCT060=

USA.gov is the U.S. government's official web portal to all federal, state and local government web resources and services.